Zero Trim — WCY3091 — position and weather

sailwx.info

Track history (hours):
 
Tides and Currents Weather Stations Pressure Air Temp Water Temp Dewpoint Dewpoint Depression Visibility Wind Speed Wind Dir Waves Ship Positions

Zero Trim

More information available from US FCC via Universal Licensing System and Coast Guard Vessel Documentation Center.

Last reported at 2014-Jul-23 17:36 UTC. Time now 2014-Jul-24 14:38 UTC.
Position N 47°39' W 122°14'.

Length 23 m.

Type: Pleasure craft. MMSI: 366747760.

Date/timePositionNaut miles runAvg speedWind from/ knotsBaromVisibWave heightAir tempDewpointWater temp
2014-Jul-23 17:36N 47°39' W 122°14'111.6
2014-Jul-23 17:31N 47°39' W 122°16'5 5.6
2014-Jul-23 16:33N 47°40' W 122°24'0 0.4
2014-Jul-23 16:27N 47°40' W 122°24'2 2.7
2014-Jul-23 15:33N 47°39' W 122°27'011.9
2014-Jul-23 15:31N 47°39' W 122°27'1111.9
2014-Jul-23 14:33N 47°27' W 122°31'8 0.2
2014-Jul-21 17:32N 47°20' W 122°34'1010.6
2014-Jul-21 16:33N 47°29' W 122°30'510.0
2014-Jul-21 16:00N 47°35' W 122°28'3 5.6
2014-Jul-21 15:27N 47°37' W 122°31'0 0.0
2014-Jul-21 15:15N 47°37' W 122°31'0 0.0
2014-Jul-21 14:33N 47°37' W 122°31'0 0.0
2014-Jul-21 14:00N 47°37' W 122°31'0 0.0
2014-Jul-21 13:24N 47°37' W 122°31'0 0.0
2014-Jul-21 13:24N 47°37' W 122°31'0 0.0
2014-Jul-21 12:30N 47°37' W 122°31'0 0.0
2014-Jul-21 11:18N 47°37' W 122°31'0 0.0
2014-Jul-21 10:33N 47°37' W 122°31'0 0.0
2014-Jul-21 09:27N 47°37' W 122°31'0 0.0
2014-Jul-21 09:03N 47°37' W 122°31'0 0.0
2014-Jul-21 08:30N 47°37' W 122°31'0 0.0
2014-Jul-21 07:57N 47°37' W 122°31'0 0.0
2014-Jul-21 07:33N 47°37' W 122°31'0 0.0
2014-Jul-21 07:24N 47°37' W 122°31'0 0.0
2014-Jul-21 06:27N 47°37' W 122°31'0 0.0
2014-Jul-21 03:27N 47°37' W 122°31'0 0.0
2014-Jul-21 03:27N 47°37' W 122°31'0 0.0
2014-Jul-21 00:36N 47°37' W 122°31'0 0.0
2014-Jul-20 23:51N 47°37' W 122°31'0 0.0
2014-Jul-20 23:30N 47°37' W 122°31'0 0.0
2014-Jul-20 23:06N 47°37' W 122°31'0 0.0
2014-Jul-20 22:33N 47°37' W 122°31'0 0.0
2014-Jul-20 21:27N 47°37' W 122°31'0 0.0
2014-Jul-20 19:30N 47°37' W 122°31'0 0.0
2014-Jul-20 19:24N 47°37' W 122°31'0 0.0
2014-Jul-20 18:33N 47°37' W 122°31'0 0.0
2014-Jul-20 17:30N 47°37' W 122°31'0 0.0
2014-Jul-20 16:15N 47°37' W 122°31'0 0.0
2014-Jul-20 15:21N 47°37' W 122°31'0 0.0
2014-Jul-20 13:03N 47°37' W 122°31'0 0.0
2014-Jul-20 12:33N 47°37' W 122°31'0 0.0
2014-Jul-20 11:45N 47°37' W 122°31'0 0.0
2014-Jul-20 11:33N 47°37' W 122°31'0 0.0
2014-Jul-20 11:30N 47°37' W 122°31'0 0.0
2014-Jul-20 10:33N 47°37' W 122°31'0 0.0
2014-Jul-20 08:03N 47°37' W 122°31'0 0.0
2014-Jul-20 08:03N 47°37' W 122°31'0 0.0
2014-Jul-20 06:57N 47°37' W 122°31'0 0.0
2014-Jul-20 04:30N 47°37' W 122°31'0 0.0
2014-Jul-20 04:27N 47°37' W 122°31'0 0.0
2014-Jul-20 02:30N 47°37' W 122°31'0 0.0
2014-Jul-20 01:42N 47°37' W 122°31'0 0.0
2014-Jul-20 01:33N 47°37' W 122°31'0 0.0
2014-Jul-20 00:57N 47°37' W 122°31'0 0.0
2014-Jul-20 00:33N 47°37' W 122°31'0 0.0
2014-Jul-20 00:27N 47°37' W 122°31'0 0.0
2014-Jul-19 23:24N 47°37' W 122°31'0 0.0
2014-Jul-19 22:42N 47°37' W 122°31'0 0.0
2014-Jul-19 22:30N 47°37' W 122°31'0 0.0
2014-Jul-19 22:27N 47°37' W 122°31'0 0.0
2014-Jul-19 21:33N 47°37' W 122°31'0 0.0
2014-Jul-19 21:21N 47°37' W 122°31'0 0.0
2014-Jul-19 20:27N 47°37' W 122°31'0 0.0
2014-Jul-19 20:21N 47°37' W 122°31'0 0.0
2014-Jul-19 19:24N 47°37' W 122°31'0 0.0
2014-Jul-19 18:51N 47°37' W 122°31'0 0.0
2014-Jul-19 18:30N 47°37' W 122°31'0 0.0
2014-Jul-19 17:16N 47°37' W 122°31'0 0.0
2014-Jul-19 17:16N 47°37' W 122°31'0 0.0
2014-Jul-19 16:31N 47°37' W 122°31'0 0.0
2014-Jul-19 16:31N 47°37' W 122°31'2 1.8
2014-Jul-19 15:32N 47°37' W 122°29'010.3
2014-Jul-19 15:31N 47°37' W 122°28'4 4.5
2014-Jul-19 14:33N 47°40' W 122°23'0 6.0
2014-Jul-19 14:31N 47°40' W 122°23'6 6.2
2014-Jul-19 13:32N 47°39' W 122°13'  
Track history (hours):
 
Tides and Currents Weather Stations Pressure Air Temp Water Temp Dewpoint Dewpoint Depression Visibility Wind Speed Wind Dir Waves Ship Positions

Zero Trim

More information available from US FCC via Universal Licensing System and Coast Guard Vessel Documentation Center.

Last reported at 2014-Jul-23 17:36 UTC. Time now 2014-Jul-24 14:38 UTC.
Position N 47°39' W 122°14'.

Length 23 m.

Type: Pleasure craft. MMSI: 366747760.

Date/timePositionNaut miles runAvg speedWind from/ knotsBaromVisibWave heightAir tempDewpointWater temp
2014-Jul-23 17:36N 47°39' W 122°14'111.6
2014-Jul-23 17:31N 47°39' W 122°16'5 5.6
2014-Jul-23 16:33N 47°40' W 122°24'0 0.4
2014-Jul-23 16:27N 47°40' W 122°24'2 2.7
2014-Jul-23 15:33N 47°39' W 122°27'011.9
2014-Jul-23 15:31N 47°39' W 122°27'1111.9
2014-Jul-23 14:33N 47°27' W 122°31'8 0.2
2014-Jul-21 17:32N 47°20' W 122°34'1010.6
2014-Jul-21 16:33N 47°29' W 122°30'510.0
2014-Jul-21 16:00N 47°35' W 122°28'3 5.6
2014-Jul-21 15:27N 47°37' W 122°31'0 0.0
2014-Jul-21 15:15N 47°37' W 122°31'0 0.0
2014-Jul-21 14:33N 47°37' W 122°31'0 0.0
2014-Jul-21 14:00N 47°37' W 122°31'0 0.0
2014-Jul-21 13:24N 47°37' W 122°31'0 0.0
2014-Jul-21 13:24N 47°37' W 122°31'0 0.0
2014-Jul-21 12:30N 47°37' W 122°31'0 0.0
2014-Jul-21 11:18N 47°37' W 122°31'0 0.0
2014-Jul-21 10:33N 47°37' W 122°31'0 0.0
2014-Jul-21 09:27N 47°37' W 122°31'0 0.0
2014-Jul-21 09:03N 47°37' W 122°31'0 0.0
2014-Jul-21 08:30N 47°37' W 122°31'0 0.0
2014-Jul-21 07:57N 47°37' W 122°31'0 0.0
2014-Jul-21 07:33N 47°37' W 122°31'0 0.0
2014-Jul-21 07:24N 47°37' W 122°31'0 0.0
2014-Jul-21 06:27N 47°37' W 122°31'0 0.0
2014-Jul-21 03:27N 47°37' W 122°31'0 0.0
2014-Jul-21 03:27N 47°37' W 122°31'0 0.0
2014-Jul-21 00:36N 47°37' W 122°31'0 0.0
2014-Jul-20 23:51N 47°37' W 122°31'0 0.0
2014-Jul-20 23:30N 47°37' W 122°31'0 0.0
2014-Jul-20 23:06N 47°37' W 122°31'0 0.0
2014-Jul-20 22:33N 47°37' W 122°31'0 0.0
2014-Jul-20 21:27N 47°37' W 122°31'0 0.0
2014-Jul-20 19:30N 47°37' W 122°31'0 0.0
2014-Jul-20 19:24N 47°37' W 122°31'0 0.0
2014-Jul-20 18:33N 47°37' W 122°31'0 0.0
2014-Jul-20 17:30N 47°37' W 122°31'0 0.0
2014-Jul-20 16:15N 47°37' W 122°31'0 0.0
2014-Jul-20 15:21N 47°37' W 122°31'0 0.0
2014-Jul-20 13:03N 47°37' W 122°31'0 0.0
2014-Jul-20 12:33N 47°37' W 122°31'0 0.0
2014-Jul-20 11:45N 47°37' W 122°31'0 0.0
2014-Jul-20 11:33N 47°37' W 122°31'0 0.0
2014-Jul-20 11:30N 47°37' W 122°31'0 0.0
2014-Jul-20 10:33N 47°37' W 122°31'0 0.0
2014-Jul-20 08:03N 47°37' W 122°31'0 0.0
2014-Jul-20 08:03N 47°37' W 122°31'0 0.0
2014-Jul-20 06:57N 47°37' W 122°31'0 0.0
2014-Jul-20 04:30N 47°37' W 122°31'0 0.0
2014-Jul-20 04:27N 47°37' W 122°31'0 0.0
2014-Jul-20 02:30N 47°37' W 122°31'0 0.0
2014-Jul-20 01:42N 47°37' W 122°31'0 0.0
2014-Jul-20 01:33N 47°37' W 122°31'0 0.0
2014-Jul-20 00:57N 47°37' W 122°31'0 0.0
2014-Jul-20 00:33N 47°37' W 122°31'0 0.0
2014-Jul-20 00:27N 47°37' W 122°31'0 0.0
2014-Jul-19 23:24N 47°37' W 122°31'0 0.0
2014-Jul-19 22:42N 47°37' W 122°31'0 0.0
2014-Jul-19 22:30N 47°37' W 122°31'0 0.0
2014-Jul-19 22:27N 47°37' W 122°31'0 0.0
2014-Jul-19 21:33N 47°37' W 122°31'0 0.0
2014-Jul-19 21:21N 47°37' W 122°31'0 0.0
2014-Jul-19 20:27N 47°37' W 122°31'0 0.0
2014-Jul-19 20:21N 47°37' W 122°31'0 0.0
2014-Jul-19 19:24N 47°37' W 122°31'0 0.0
2014-Jul-19 18:51N 47°37' W 122°31'0 0.0
2014-Jul-19 18:30N 47°37' W 122°31'0 0.0
2014-Jul-19 17:16N 47°37' W 122°31'0 0.0
2014-Jul-19 17:16N 47°37' W 122°31'0 0.0
2014-Jul-19 16:31N 47°37' W 122°31'0 0.0
2014-Jul-19 16:31N 47°37' W 122°31'2 1.8
2014-Jul-19 15:32N 47°37' W 122°29'010.3
2014-Jul-19 15:31N 47°37' W 122°28'4 4.5
2014-Jul-19 14:33N 47°40' W 122°23'0 6.0
2014-Jul-19 14:31N 47°40' W 122°23'6 6.2
2014-Jul-19 13:32N 47°39' W 122°13'  

Dump ship's entire track history